• Join FlightAware (Why Join?)
  • Login
  • US Flag 
Rudolph Flight #1: Arrived! 
03:08PM EST


 

Airport Tracker/Info


-or-


 

Live Flight TrackerFlight Track Log ✈ N173DS ✈ 26-Dec-2013 ✈ KORL - KNEW

Flight Track Log - Related Links

Times and Time Zones

All times are in EST time to prevent confusion due to time zone crossing. See the N173DS flight status page for this flight to view local times or setup timezone preferences in your user account.

Time Position Orientation Groundspeed Altitude Reporting Facility
EST Latitude Longitude Course Direction KTS MPH feet Rate Location/Type
01:07PM 28.5500 -81.3167 41° Northeast 178 205 800  Level Orlando TRACON
01:08PM 28.6000 -81.2667 41° Northeast 200 230 1,700 720 Climbing Orlando TRACON
01:09PM 28.6500 -81.2833 344° North 216 249 2,300 600 Climbing Orlando TRACON
01:10PM 28.6667 -81.3500 286° West 228 262 2,900 1,680 Climbing Orlando TRACON
01:11PM 28.6333 -81.4000 233° Southwest 227 261 5,700 2,820 Climbing Orlando TRACON
01:12PM 28.6000 -81.4667 240° Southwest 223 257 8,600 2,640 Climbing Orlando TRACON
01:13PM 28.5833 -81.5333 254° West 260 299 11,000 2,640 Climbing Orlando TRACON
01:15PM 28.5078 -81.7256 246° West 313 360 17,400 2,880 Climbing Jacksonville Center
01:16PM 28.4817 -81.8344 255° West 331 381 20,600 3,300 Climbing Jacksonville Center
01:17PM 28.4553 -81.9433 255° West 353 406 24,100 2,700 Climbing Jacksonville Center
01:18PM 28.4269 -82.0642 255° West 358 412 26,000 1,800 Climbing Jacksonville Center
01:19PM 28.3983 -82.1822 255° West 370 426 27,700 1,920 Climbing Jacksonville Center
01:20PM 28.3844 -82.3075 263° West 388 447 29,900 1,260 Climbing Jacksonville Center
01:21PM 28.4350 -82.4158 298° West 404 465 30,300 900 Climbing Jacksonville Center
01:22PM 28.4853 -82.5264 297° West 404 465 31,800 840 Climbing Jacksonville Center
01:23PM 28.5336 -82.6375 296° West 404 465 32,000 360 Climbing Jacksonville Center
01:25PM 28.6300 -82.8714 295° West 402 463 33,000 1,020 Climbing Jacksonville Center
01:26PM 28.6800 -82.9992 294° West 402 463 35,200 2,460 Climbing Jacksonville Center
01:27PM 28.7217 -83.1056 294° West 391 450 38,000 2,340 Climbing Jacksonville Center
01:28PM 28.7653 -83.2053 297° West 375 432 39,900 960 Climbing Jacksonville Center
01:29PM 28.8044 -83.3072 294° West 356 410 40,000  Climbing Jacksonville Center
01:30PM 28.8500 -83.4164 295° West 361 415 40,000  Level Jacksonville Center
01:31PM 28.8933 -83.5306 293° West 379 436 40,000  Level Jacksonville Center
01:32PM 28.9367 -83.6306 296° West 384 442 40,000  Level Jacksonville Center
01:33PM 28.9797 -83.7422 294° West 384 442 40,000  Level Jacksonville Center
01:34PM 29.0250 -83.8542 295° West 384 442 40,000  Level Jacksonville Center
01:35PM 29.0700 -83.9664 295° West 384 442 40,000  Level Jacksonville Center
01:36PM 29.1150 -84.0786 295° West 384 442 40,000  Level Jacksonville Center
01:37PM 29.1578 -84.1886 294° West 384 442 40,000  Level Jacksonville Center
01:38PM 29.2044 -84.3008 295° West 384 442 40,000  Level Jacksonville Center
01:39PM 29.2344 -84.4156 287° West 379 436 40,000  Level Jacksonville Center
01:40PM 29.2558 -84.5444 281° West 373 429 40,000  Level Jacksonville Center
01:41PM 29.2731 -84.6614 280° West 373 429 40,000  Level Jacksonville Center
01:42PM 29.2922 -84.7783 281° West 373 429 40,000  Level Jacksonville Center
01:43PM 29.3133 -84.8956 282° West 373 429 40,000  Level Jacksonville Center
01:44PM 29.3303 -85.0125 279° West 373 429 40,000  Level Jacksonville Center
01:45PM 29.3472 -85.1297 279° West 373 429 40,000  Level Jacksonville Center
01:46PM 29.3681 -85.2444 282° West 373 429 40,000  Level Jacksonville Center
01:47PM 29.3889 -85.3617 282° West 373 429 40,000  Level Jacksonville Center
01:48PM 29.4075 -85.4789 280° West 373 429 40,000  Level Jacksonville Center
01:49PM 29.4258 -85.5964 280° West 373 429 40,000  Level Jacksonville Center
01:50PM 29.4442 -85.7161 280° West 373 429 40,000  Level Jacksonville Center
01:51PM 29.4625 -85.8311 280° West 373 429 40,000  Level Jacksonville Center
01:52PM 29.4783 -85.9508 279° West 379 436 40,000  Level Jacksonville Center
01:53PM 29.4983 -86.0683 281° West 374 430 40,000  Level Jacksonville Center
01:54PM 29.5164 -86.1881 280° West 374 430 40,000  Level Jacksonville Center
01:55PM 29.5361 -86.3081 281° West 374 430 40,000  Level Jacksonville Center
01:56PM 29.5517 -86.4281 279° West 374 430 40,000  Level Jacksonville Center
01:57PM 29.5714 -86.5458 281° West 374 430 40,000  Level Jacksonville Center
01:58PM 29.5886 -86.6633 280° West 374 430 40,000  Level Jacksonville Center
01:59PM 29.6061 -86.7836 280° West 374 430 40,000  Level Jacksonville Center
02:00PM 29.6233 -86.9011 280° West 374 430 40,000  Level Jacksonville Center
02:01PM 29.6425 -87.0214 280° West 374 430 40,000  Level Jacksonville Center
02:02PM 29.6592 -87.1442 279° West 380 437 40,000  Level Jacksonville Center
02:03PM 29.6781 -87.2619 280° West 380 437 40,000  Level Jacksonville Center
02:04PM 29.6908 -87.3797 277° West 380 437 40,000  Level Jacksonville Center
02:04PM 29.7022 -87.4325 284° West 381 438 40,000  Level Houston Center
02:05PM 29.7208 -87.5528 280° West 383 441 40,000  Level Houston Center
02:06PM 29.7356 -87.6731 278° West 381 438 40,000  Level Houston Center
02:07PM 29.7544 -87.8181 279° West 382 440 40,000 -480 Level Houston Center
02:08PM 29.7706 -87.9331 279° West 371 427 39,100 -1,500 Descending Houston Center
02:10PM 29.7872 -88.0472 280° West 363 418 36,900 -2,100 Descending Houston Center
02:11PM 29.8008 -88.1611 278° West 360 414 34,800 -2,160 Descending Houston Center
02:12PM 29.8181 -88.2767 280° West 363 418 32,500 -2,520 Descending Houston Center
02:13PM 29.8383 -88.4217 279° West 398 458 29,700 -2,640 Descending Houston Center
02:14PM 29.8558 -88.5542 279° West 417 480 27,100 -2,460 Descending Houston Center
02:15PM 29.8733 -88.6906 278° West 428 493 24,600 -2,280 Descending Houston Center
02:16PM 29.8900 -88.8131 279° West 397 457 22,400 -2,220 Descending Houston Center
02:17PM 29.9044 -88.9331 278° West 381 438 20,100 -2,520 Descending Houston Center
02:18PM 29.9231 -89.0772 279° West 379 436 17,300 -2,400 Descending Houston Center
02:19PM 29.9383 -89.1947 279° West 375 432 15,200 -1,920 Descending Houston Center
02:19PM 29.9428 -89.2233 280° West 359 413 14,900 -1,860 Descending Houston Center
02:20PM 29.9522 -89.3042 278° West 354 407 13,300 -2,220 Descending Houston Center
02:20PM 29.9550 -89.3211 281° West 337 388 12,900 -1,920 Descending Houston Center
02:21PM 29.9667 -89.4108 279° West 342 394 11,300 -1,920 Descending Houston Center
02:21PM 29.9672 -89.4286 272° West 336 387 11,000 -300 Descending Houston Center
02:22PM 29.9786 -89.5122 279° West 328 377 11,000  Level Houston Center
02:22PM 29.9817 -89.5358 279° West 313 360 11,000  Level Houston Center
02:23PM 29.9914 -89.6075 279° West 309 356 11,000  Level Houston Center
02:23PM 29.9933 -89.6314 275° West 295 339 11,000 -120 Level Houston Center
02:24PM 30.0017 -89.7033 278° West 302 348 10,900 -300 Descending Houston Center
02:24PM 30.0028 -89.7247 273° West 297 342 10,700 -2,280 Descending Houston Center
02:25PM 30.0022 -89.8089 270° West 281 323 8,600 -2,100 Descending Houston Center
02:25PM 30.0017 -89.8111 254° West 266 306 8,600 -3,120 Level Houston Center
02:26PM 29.9678 -89.8797 240° Southwest 259 298 5,400 -3,000 Descending Houston Center
02:27PM 29.9433 -89.9547 249° West 253 291 2,600 -2,460 Descending Houston Center
02:27PM 29.9444 -89.9769 273° West 231 266 2,200 -720 Descending Houston Center
02:28PM 29.9539 -90.0192 284° West 223 257 1,900 -540 Descending Houston Center
02:28PM 29.9606 -90.0242 327° Northwest 173 199 1,800 -900 Descending Houston Center
02:29PM 29.9892 -90.0300 350° North 163 188 1,000 -840 Descending Houston Center
02:29PM 29.9942 -90.0300 360° North 112 129 1,000 -720 Level Houston Center
02:30PM 30.0239 -90.0294 North 138 159 300 -720 Descending Houston Center